Kongen — LCDE — position and weather

sailwx.info

Track history (hours):
 
Tides and Currents Weather Stations Pressure Air Temp Water Temp Dewpoint Dewpoint Depression Visibility Wind Speed Wind Dir Waves Ship Positions

Kongen

Last reported at 2014-Nov-01 05:32 UTC. Time now 2014-Nov-01 06:58 UTC.
Position N 59°55' E 010°44'.

Length 50 m; draft 3.2 m.

Type: Passenger vessel. MMSI: 258509000.

Date/timePositionNaut miles runAvg speedWind from/ knotsBaromVisibWave heightAir tempDewpointWater temp
2014-Nov-01 05:32N 59°55' E 010°44'0 0.0
2014-Nov-01 04:32N 59°55' E 010°44'0 0.0
2014-Nov-01 03:32N 59°55' E 010°44'0 0.0
2014-Nov-01 02:20N 59°55' E 010°44'0 0.0
2014-Nov-01 01:23N 59°55' E 010°44'0 0.0
2014-Nov-01 00:26N 59°55' E 010°44'0 0.0
2014-Oct-31 23:26N 59°55' E 010°44'0 0.0
2014-Oct-31 22:26N 59°55' E 010°44'0 0.0
2014-Oct-31 21:29N 59°55' E 010°44'0 0.0
2014-Oct-31 20:29N 59°55' E 010°44'0 0.0
2014-Oct-31 19:29N 59°55' E 010°44'0 0.0
2014-Oct-31 18:29N 59°55' E 010°44'0 0.0
2014-Oct-31 17:29N 59°55' E 010°44'3 3.5
2014-Oct-31 16:33N 59°52' E 010°39'1 0.7
2014-Oct-31 15:29N 59°53' E 010°40'1 0.6
2014-Oct-31 14:32N 59°53' E 010°40'3 2.8
2014-Oct-31 13:30N 59°55' E 010°44'0 0.0
2014-Oct-31 12:33N 59°55' E 010°44'0 0.0
2014-Oct-31 11:33N 59°55' E 010°44'0 0.0
2014-Oct-31 10:32N 59°55' E 010°44'0 0.1
2014-Oct-31 09:33N 59°54' E 010°44'0 0.0
2014-Oct-31 08:33N 59°54' E 010°44'1 1.3
2014-Oct-31 07:32N 59°54' E 010°42'0 0.2
2014-Oct-31 06:33N 59°54' E 010°42'1 1.2
2014-Oct-31 05:28N 59°55' E 010°44'0 0.0
2014-Oct-31 04:28N 59°55' E 010°44'0 0.0
2014-Oct-31 03:28N 59°55' E 010°44'0 0.0
2014-Oct-31 02:31N 59°55' E 010°44'0 0.0
2014-Oct-31 01:31N 59°55' E 010°44'0 0.0
2014-Oct-31 00:34N 59°55' E 010°44'0 0.0
2014-Oct-30 23:34N 59°55' E 010°44'0 0.0
2014-Oct-30 22:34N 59°55' E 010°44'0 0.0
2014-Oct-30 21:31N 59°55' E 010°44'0 0.0
2014-Oct-30 20:22N 59°55' E 010°44'0 0.0
2014-Oct-30 19:34N 59°55' E 010°44'0 0.0
2014-Oct-30 18:34N 59°55' E 010°44'0 0.1
2014-Oct-30 17:33N 59°54' E 010°44'0 0.0
2014-Oct-30 16:33N 59°55' E 010°44'0 0.0
2014-Oct-30 15:33N 59°55' E 010°44'0 0.1
2014-Oct-30 14:33N 59°55' E 010°44'0 0.1
2014-Oct-30 13:33N 59°54' E 010°44'0 0.0
2014-Oct-30 12:33N 59°55' E 010°44'0 0.0
2014-Oct-30 11:33N 59°55' E 010°44'0 0.1
2014-Oct-30 10:23N 59°55' E 010°44'0 0.0
2014-Oct-30 09:23N 59°55' E 010°44'0 0.0
2014-Oct-30 08:26N 59°55' E 010°44'0 0.1
2014-Oct-30 07:33N 59°55' E 010°44'0 0.1
2014-Oct-30 06:33N 59°55' E 010°44'0 0.0
2014-Oct-30 05:33N 59°55' E 010°44'3 3.0
2014-Oct-30 04:32N 59°52' E 010°39'0 0.0
2014-Oct-30 03:32N 59°52' E 010°39'0 0.0
2014-Oct-30 02:32N 59°52' E 010°39'0 0.0
2014-Oct-30 01:32N 59°52' E 010°39'0 0.0
2014-Oct-30 00:20N 59°52' E 010°39'0 0.0
2014-Oct-29 23:23N 59°52' E 010°39'0 0.0
2014-Oct-29 22:26N 59°52' E 010°39'0 0.0
2014-Oct-29 21:20N 59°52' E 010°39'0 0.0
2014-Oct-29 20:26N 59°52' E 010°39'0 0.0
2014-Oct-29 19:23N 59°52' E 010°39'0 0.0
2014-Oct-29 18:29N 59°52' E 010°39'0 0.0
2014-Oct-29 17:26N 59°52' E 010°39'1 0.7
2014-Oct-29 16:30N 59°53' E 010°40'0 0.2
2014-Oct-29 15:29N 59°53' E 010°40'1 0.6
2014-Oct-29 14:32N 59°52' E 010°40'3 3.0
2014-Oct-29 13:32N 59°55' E 010°44'0 0.0
2014-Oct-29 12:32N 59°55' E 010°44'0 0.0
2014-Oct-29 11:29N 59°55' E 010°44'0 0.1
2014-Oct-29 10:33N 59°55' E 010°44'0 0.0
2014-Oct-29 09:33N 59°55' E 010°44'0 0.1
2014-Oct-29 08:33N 59°55' E 010°44'1 1.1
2014-Oct-29 07:33N 59°54' E 010°42'0 0.1
2014-Oct-29 06:33N 59°54' E 010°42'1 1.2
2014-Oct-29 05:31N 59°55' E 010°44'0 0.0
2014-Oct-29 04:19N 59°55' E 010°44'0 0.0
2014-Oct-29 03:31N 59°55' E 010°44'0 0.0
2014-Oct-29 02:22N 59°55' E 010°44'0 0.0
2014-Oct-29 01:19N 59°55' E 010°44'0 0.0
2014-Oct-28 23:25N 59°55' E 010°44'0 0.0
2014-Oct-28 22:25N 59°55' E 010°44'0 0.0
2014-Oct-28 21:28N 59°55' E 010°44'0 0.0
2014-Oct-28 20:28N 59°55' E 010°44'0 0.0
2014-Oct-28 19:25N 59°55' E 010°44'0 0.0
2014-Oct-28 18:31N 59°55' E 010°44'0 0.0
2014-Oct-28 17:33N 59°55' E 010°44'0 0.1
2014-Oct-28 16:33N 59°55' E 010°44'0 0.1
2014-Oct-28 15:32N 59°55' E 010°44'0 0.1
2014-Oct-28 14:33N 59°55' E 010°44'0 0.1
2014-Oct-28 13:33N 59°55' E 010°44'0 0.1
2014-Oct-28 12:33N 59°54' E 010°44'0 0.1
2014-Oct-28 11:33N 59°55' E 010°44'0 0.0
2014-Oct-28 10:33N 59°55' E 010°44'0 0.0
2014-Oct-28 09:33N 59°55' E 010°44'0 0.0
2014-Oct-28 08:33N 59°55' E 010°44'0 0.0
2014-Oct-28 07:32N 59°55' E 010°44'0 0.1
2014-Oct-28 06:33N 59°55' E 010°44'0 0.0
2014-Oct-28 05:33N 59°55' E 010°44'3 0.2
2014-Oct-27 16:31N 59°53' E 010°40'0 0.5
2014-Oct-27 15:28N 59°53' E 010°40'1 0.8
2014-Oct-27 14:32N 59°52' E 010°40'3 2.5
2014-Oct-27 13:20N 59°55' E 010°44'0 0.0
2014-Oct-27 12:20N 59°55' E 010°44'0 0.0
2014-Oct-27 11:30N 59°55' E 010°44'0 0.0
2014-Oct-27 10:33N 59°55' E 010°44'0 0.0
2014-Oct-27 09:33N 59°55' E 010°44'0 0.0
2014-Oct-27 08:33N 59°55' E 010°44'1 1.1
2014-Oct-27 07:33N 59°54' E 010°42'0 0.2
2014-Oct-27 06:32N 59°54' E 010°42'1 1.1
2014-Oct-27 05:22N 59°55' E 010°44'0 0.0
2014-Oct-27 04:25N 59°55' E 010°44'0 0.0
2014-Oct-27 03:22N 59°55' E 010°44'0 0.0
2014-Oct-27 02:28N 59°55' E 010°44'0 0.0
2014-Oct-27 01:28N 59°55' E 010°44'0 0.0
2014-Oct-27 00:28N 59°55' E 010°44'0 0.0
2014-Oct-26 23:31N 59°55' E 010°44'0 0.0
2014-Oct-26 22:31N 59°55' E 010°44'0 0.0
2014-Oct-26 21:28N 59°55' E 010°44'0 0.0
2014-Oct-26 20:31N 59°55' E 010°44'0 0.0
2014-Oct-26 19:31N 59°55' E 010°44'0 0.0
2014-Oct-26 18:31N 59°55' E 010°44'0 0.0
2014-Oct-26 17:19N 59°55' E 010°44'0 0.0
2014-Oct-26 16:22N 59°55' E 010°44'0 0.0
2014-Oct-26 15:22N 59°55' E 010°44'0 0.0
2014-Oct-26 14:22N 59°55' E 010°44'0 0.1
2014-Oct-26 13:33N 59°55' E 010°44'0 0.0
2014-Oct-26 12:33N 59°55' E 010°44'0 0.1
2014-Oct-26 11:33N 59°55' E 010°44'0 0.0
2014-Oct-26 10:33N 59°55' E 010°44'0 0.0
2014-Oct-26 09:33N 59°55' E 010°44'0 0.1
2014-Oct-26 08:33N 59°55' E 010°44'0 0.1
2014-Oct-26 07:33N 59°54' E 010°44'0 0.1
2014-Oct-26 06:32N 59°55' E 010°44'0 0.1
2014-Oct-26 05:33N 59°55' E 010°44'0 0.1
2014-Oct-26 04:26N 59°55' E 010°44'0 0.0
2014-Oct-26 03:26N 59°55' E 010°44'0 0.0
2014-Oct-26 02:23N 59°55' E 010°44'0 0.0
2014-Oct-26 01:29N 59°55' E 010°44'0 0.0
2014-Oct-26 00:29N 59°55' E 010°44'0 0.0
2014-Oct-25 23:29N 59°55' E 010°44'0 0.0
2014-Oct-25 22:32N 59°55' E 010°44'0 0.0
2014-Oct-25 21:32N 59°55' E 010°44'0 0.0
2014-Oct-25 20:32N 59°55' E 010°44'0 0.0
2014-Oct-25 19:32N 59°55' E 010°44'0 0.0
2014-Oct-25 18:32N 59°55' E 010°44'0 0.0
2014-Oct-25 17:32N 59°55' E 010°44'0 0.0
2014-Oct-25 16:32N 59°55' E 010°44'0 0.0
2014-Oct-25 15:24N 59°55' E 010°44'0 0.1
2014-Oct-25 14:33N 59°55' E 010°44'0 0.0
2014-Oct-25 13:33N 59°55' E 010°44'0 0.0
2014-Oct-25 12:33N 59°55' E 010°44'0 0.0
2014-Oct-25 11:33N 59°55' E 010°44'0 0.0
2014-Oct-25 10:33N 59°55' E 010°44'0 0.1
2014-Oct-25 09:33N 59°55' E 010°44'0 0.0
2014-Oct-25 08:33N 59°55' E 010°44'0 0.1
2014-Oct-25 07:33N 59°55' E 010°44'0 0.0
2014-Oct-25 06:33N 59°55' E 010°44'0 0.1
2014-Oct-25 05:33N 59°54' E 010°44'0 0.0
2014-Oct-25 04:33N 59°55' E 010°44'0 0.1
2014-Oct-25 03:29N 59°55' E 010°44'0 0.0
2014-Oct-25 02:29N 59°55' E 010°44'0 0.0
2014-Oct-25 01:29N 59°55' E 010°44'0 0.0
2014-Oct-25 00:32N 59°55' E 010°44'0 0.0
2014-Oct-24 23:32N 59°55' E 010°44'0 0.0
2014-Oct-24 22:32N 59°55' E 010°44'0 0.0
2014-Oct-24 21:32N 59°55' E 010°44'0 0.0
2014-Oct-24 20:32N 59°55' E 010°44'0 0.0
2014-Oct-24 19:32N 59°55' E 010°44'0 0.0
2014-Oct-24 18:32N 59°55' E 010°44'0 0.0
2014-Oct-24 17:23N 59°55' E 010°44'0 0.0
2014-Oct-24 16:33N 59°55' E 010°44'0 0.1
2014-Oct-24 15:33N 59°55' E 010°44'0 0.0
2014-Oct-24 14:33N 59°55' E 010°44'0 0.1
2014-Oct-24 13:33N 59°54' E 010°44'0 0.1
2014-Oct-24 12:33N 59°55' E 010°44'0 0.0
2014-Oct-24 11:33N 59°55' E 010°44'0 0.0
2014-Oct-24 10:33N 59°54' E 010°44'0 0.1
2014-Oct-24 08:17N 59°55' E 010°44'0 0.0
2014-Oct-24 07:33N 59°55' E 010°44'0 0.1
2014-Oct-24 06:33N 59°54' E 010°44'0 0.0
2014-Oct-24 05:33N 59°54' E 010°44'0 0.0
2014-Oct-24 04:33N 59°55' E 010°44'3 0.2
2014-Oct-23 15:29N 59°53' E 010°40'0 0.4
2014-Oct-23 14:28N 59°53' E 010°40'1 0.6
2014-Oct-23 13:31N 59°53' E 010°40'3 3.0
2014-Oct-23 12:33N 59°55' E 010°44'1 0.6
2014-Oct-23 11:32N 59°54' E 010°43'0 0.0
2014-Oct-23 10:33N 59°54' E 010°42'1 0.7
2014-Oct-23 09:33N 59°55' E 010°44'0 0.0
2014-Oct-23 08:33N 59°55' E 010°44'0 0.0
2014-Oct-23 07:33N 59°55' E 010°44'1 1.2
2014-Oct-23 06:33N 59°54' E 010°42'0 0.1
2014-Oct-23 05:33N 59°54' E 010°42'1 1.0
2014-Oct-23 04:22N 59°55' E 010°44'0 0.0
2014-Oct-23 03:25N 59°55' E 010°44'0 0.0
2014-Oct-23 02:22N 59°55' E 010°44'0 0.0
2014-Oct-23 01:28N 59°55' E 010°44'0 0.0
2014-Oct-23 00:16N 59°55' E 010°44'0 0.0
2014-Oct-22 23:31N 59°55' E 010°44'0 0.0
2014-Oct-22 22:31N 59°55' E 010°44'0 0.0
2014-Oct-22 21:28N 59°55' E 010°44'0 0.0
2014-Oct-22 20:28N 59°55' E 010°44'0 0.0
2014-Oct-22 19:31N 59°55' E 010°44'0 0.0
2014-Oct-22 18:31N 59°55' E 010°44'0 0.0
2014-Oct-22 17:31N 59°55' E 010°44'0 0.0
2014-Oct-22 16:33N 59°55' E 010°44'0 0.0
2014-Oct-22 15:34N 59°55' E 010°44'0 0.0
2014-Oct-22 14:33N 59°55' E 010°44'0 0.0
2014-Oct-22 13:34N 59°55' E 010°44'0 0.0
2014-Oct-22 12:33N 59°55' E 010°44'0 0.0
2014-Oct-22 11:33N 59°55' E 010°44'0 0.0
2014-Oct-22 10:33N 59°55' E 010°44'0 0.0
2014-Oct-22 09:32N 59°55' E 010°44'0 0.0
2014-Oct-22 08:32N 59°55' E 010°44'0 0.0
2014-Oct-22 07:25N 59°55' E 010°44'0 0.1
2014-Oct-22 06:33N 59°55' E 010°44'0 0.0
2014-Oct-22 05:33N 59°54' E 010°44'  
Track history (hours):
 
Tides and Currents Weather Stations Pressure Air Temp Water Temp Dewpoint Dewpoint Depression Visibility Wind Speed Wind Dir Waves Ship Positions

Kongen

Last reported at 2014-Nov-01 05:32 UTC. Time now 2014-Nov-01 06:58 UTC.
Position N 59°55' E 010°44'.

Length 50 m; draft 3.2 m.

Type: Passenger vessel. MMSI: 258509000.

Date/timePositionNaut miles runAvg speedWind from/ knotsBaromVisibWave heightAir tempDewpointWater temp
2014-Nov-01 05:32N 59°55' E 010°44'0 0.0
2014-Nov-01 04:32N 59°55' E 010°44'0 0.0
2014-Nov-01 03:32N 59°55' E 010°44'0 0.0
2014-Nov-01 02:20N 59°55' E 010°44'0 0.0
2014-Nov-01 01:23N 59°55' E 010°44'0 0.0
2014-Nov-01 00:26N 59°55' E 010°44'0 0.0
2014-Oct-31 23:26N 59°55' E 010°44'0 0.0
2014-Oct-31 22:26N 59°55' E 010°44'0 0.0
2014-Oct-31 21:29N 59°55' E 010°44'0 0.0
2014-Oct-31 20:29N 59°55' E 010°44'0 0.0
2014-Oct-31 19:29N 59°55' E 010°44'0 0.0
2014-Oct-31 18:29N 59°55' E 010°44'0 0.0
2014-Oct-31 17:29N 59°55' E 010°44'3 3.5
2014-Oct-31 16:33N 59°52' E 010°39'1 0.7
2014-Oct-31 15:29N 59°53' E 010°40'1 0.6
2014-Oct-31 14:32N 59°53' E 010°40'3 2.8
2014-Oct-31 13:30N 59°55' E 010°44'0 0.0
2014-Oct-31 12:33N 59°55' E 010°44'0 0.0
2014-Oct-31 11:33N 59°55' E 010°44'0 0.0
2014-Oct-31 10:32N 59°55' E 010°44'0 0.1
2014-Oct-31 09:33N 59°54' E 010°44'0 0.0
2014-Oct-31 08:33N 59°54' E 010°44'1 1.3
2014-Oct-31 07:32N 59°54' E 010°42'0 0.2
2014-Oct-31 06:33N 59°54' E 010°42'1 1.2
2014-Oct-31 05:28N 59°55' E 010°44'0 0.0
2014-Oct-31 04:28N 59°55' E 010°44'0 0.0
2014-Oct-31 03:28N 59°55' E 010°44'0 0.0
2014-Oct-31 02:31N 59°55' E 010°44'0 0.0
2014-Oct-31 01:31N 59°55' E 010°44'0 0.0
2014-Oct-31 00:34N 59°55' E 010°44'0 0.0
2014-Oct-30 23:34N 59°55' E 010°44'0 0.0
2014-Oct-30 22:34N 59°55' E 010°44'0 0.0
2014-Oct-30 21:31N 59°55' E 010°44'0 0.0
2014-Oct-30 20:22N 59°55' E 010°44'0 0.0
2014-Oct-30 19:34N 59°55' E 010°44'0 0.0
2014-Oct-30 18:34N 59°55' E 010°44'0 0.1
2014-Oct-30 17:33N 59°54' E 010°44'0 0.0
2014-Oct-30 16:33N 59°55' E 010°44'0 0.0
2014-Oct-30 15:33N 59°55' E 010°44'0 0.1
2014-Oct-30 14:33N 59°55' E 010°44'0 0.1
2014-Oct-30 13:33N 59°54' E 010°44'0 0.0
2014-Oct-30 12:33N 59°55' E 010°44'0 0.0
2014-Oct-30 11:33N 59°55' E 010°44'0 0.1
2014-Oct-30 10:23N 59°55' E 010°44'0 0.0
2014-Oct-30 09:23N 59°55' E 010°44'0 0.0
2014-Oct-30 08:26N 59°55' E 010°44'0 0.1
2014-Oct-30 07:33N 59°55' E 010°44'0 0.1
2014-Oct-30 06:33N 59°55' E 010°44'0 0.0
2014-Oct-30 05:33N 59°55' E 010°44'3 3.0
2014-Oct-30 04:32N 59°52' E 010°39'0 0.0
2014-Oct-30 03:32N 59°52' E 010°39'0 0.0
2014-Oct-30 02:32N 59°52' E 010°39'0 0.0
2014-Oct-30 01:32N 59°52' E 010°39'0 0.0
2014-Oct-30 00:20N 59°52' E 010°39'0 0.0
2014-Oct-29 23:23N 59°52' E 010°39'0 0.0
2014-Oct-29 22:26N 59°52' E 010°39'0 0.0
2014-Oct-29 21:20N 59°52' E 010°39'0 0.0
2014-Oct-29 20:26N 59°52' E 010°39'0 0.0
2014-Oct-29 19:23N 59°52' E 010°39'0 0.0
2014-Oct-29 18:29N 59°52' E 010°39'0 0.0
2014-Oct-29 17:26N 59°52' E 010°39'1 0.7
2014-Oct-29 16:30N 59°53' E 010°40'0 0.2
2014-Oct-29 15:29N 59°53' E 010°40'1 0.6
2014-Oct-29 14:32N 59°52' E 010°40'3 3.0
2014-Oct-29 13:32N 59°55' E 010°44'0 0.0
2014-Oct-29 12:32N 59°55' E 010°44'0 0.0
2014-Oct-29 11:29N 59°55' E 010°44'0 0.1
2014-Oct-29 10:33N 59°55' E 010°44'0 0.0
2014-Oct-29 09:33N 59°55' E 010°44'0 0.1
2014-Oct-29 08:33N 59°55' E 010°44'1 1.1
2014-Oct-29 07:33N 59°54' E 010°42'0 0.1
2014-Oct-29 06:33N 59°54' E 010°42'1 1.2
2014-Oct-29 05:31N 59°55' E 010°44'0 0.0
2014-Oct-29 04:19N 59°55' E 010°44'0 0.0
2014-Oct-29 03:31N 59°55' E 010°44'0 0.0
2014-Oct-29 02:22N 59°55' E 010°44'0 0.0
2014-Oct-29 01:19N 59°55' E 010°44'0 0.0
2014-Oct-28 23:25N 59°55' E 010°44'0 0.0
2014-Oct-28 22:25N 59°55' E 010°44'0 0.0
2014-Oct-28 21:28N 59°55' E 010°44'0 0.0
2014-Oct-28 20:28N 59°55' E 010°44'0 0.0
2014-Oct-28 19:25N 59°55' E 010°44'0 0.0
2014-Oct-28 18:31N 59°55' E 010°44'0 0.0
2014-Oct-28 17:33N 59°55' E 010°44'0 0.1
2014-Oct-28 16:33N 59°55' E 010°44'0 0.1
2014-Oct-28 15:32N 59°55' E 010°44'0 0.1
2014-Oct-28 14:33N 59°55' E 010°44'0 0.1
2014-Oct-28 13:33N 59°55' E 010°44'0 0.1
2014-Oct-28 12:33N 59°54' E 010°44'0 0.1
2014-Oct-28 11:33N 59°55' E 010°44'0 0.0
2014-Oct-28 10:33N 59°55' E 010°44'0 0.0
2014-Oct-28 09:33N 59°55' E 010°44'0 0.0
2014-Oct-28 08:33N 59°55' E 010°44'0 0.0
2014-Oct-28 07:32N 59°55' E 010°44'0 0.1
2014-Oct-28 06:33N 59°55' E 010°44'0 0.0
2014-Oct-28 05:33N 59°55' E 010°44'3 0.2
2014-Oct-27 16:31N 59°53' E 010°40'0 0.5
2014-Oct-27 15:28N 59°53' E 010°40'1 0.8
2014-Oct-27 14:32N 59°52' E 010°40'3 2.5
2014-Oct-27 13:20N 59°55' E 010°44'0 0.0
2014-Oct-27 12:20N 59°55' E 010°44'0 0.0
2014-Oct-27 11:30N 59°55' E 010°44'0 0.0
2014-Oct-27 10:33N 59°55' E 010°44'0 0.0
2014-Oct-27 09:33N 59°55' E 010°44'0 0.0
2014-Oct-27 08:33N 59°55' E 010°44'1 1.1
2014-Oct-27 07:33N 59°54' E 010°42'0 0.2
2014-Oct-27 06:32N 59°54' E 010°42'1 1.1
2014-Oct-27 05:22N 59°55' E 010°44'0 0.0
2014-Oct-27 04:25N 59°55' E 010°44'0 0.0
2014-Oct-27 03:22N 59°55' E 010°44'0 0.0
2014-Oct-27 02:28N 59°55' E 010°44'0 0.0
2014-Oct-27 01:28N 59°55' E 010°44'0 0.0
2014-Oct-27 00:28N 59°55' E 010°44'0 0.0
2014-Oct-26 23:31N 59°55' E 010°44'0 0.0
2014-Oct-26 22:31N 59°55' E 010°44'0 0.0
2014-Oct-26 21:28N 59°55' E 010°44'0 0.0
2014-Oct-26 20:31N 59°55' E 010°44'0 0.0
2014-Oct-26 19:31N 59°55' E 010°44'0 0.0
2014-Oct-26 18:31N 59°55' E 010°44'0 0.0
2014-Oct-26 17:19N 59°55' E 010°44'0 0.0
2014-Oct-26 16:22N 59°55' E 010°44'0 0.0
2014-Oct-26 15:22N 59°55' E 010°44'0 0.0
2014-Oct-26 14:22N 59°55' E 010°44'0 0.1
2014-Oct-26 13:33N 59°55' E 010°44'0 0.0
2014-Oct-26 12:33N 59°55' E 010°44'0 0.1
2014-Oct-26 11:33N 59°55' E 010°44'0 0.0
2014-Oct-26 10:33N 59°55' E 010°44'0 0.0
2014-Oct-26 09:33N 59°55' E 010°44'0 0.1
2014-Oct-26 08:33N 59°55' E 010°44'0 0.1
2014-Oct-26 07:33N 59°54' E 010°44'0 0.1
2014-Oct-26 06:32N 59°55' E 010°44'0 0.1
2014-Oct-26 05:33N 59°55' E 010°44'0 0.1
2014-Oct-26 04:26N 59°55' E 010°44'0 0.0
2014-Oct-26 03:26N 59°55' E 010°44'0 0.0
2014-Oct-26 02:23N 59°55' E 010°44'0 0.0
2014-Oct-26 01:29N 59°55' E 010°44'0 0.0
2014-Oct-26 00:29N 59°55' E 010°44'0 0.0
2014-Oct-25 23:29N 59°55' E 010°44'0 0.0
2014-Oct-25 22:32N 59°55' E 010°44'0 0.0
2014-Oct-25 21:32N 59°55' E 010°44'0 0.0
2014-Oct-25 20:32N 59°55' E 010°44'0 0.0
2014-Oct-25 19:32N 59°55' E 010°44'0 0.0
2014-Oct-25 18:32N 59°55' E 010°44'0 0.0
2014-Oct-25 17:32N 59°55' E 010°44'0 0.0
2014-Oct-25 16:32N 59°55' E 010°44'0 0.0
2014-Oct-25 15:24N 59°55' E 010°44'0 0.1
2014-Oct-25 14:33N 59°55' E 010°44'0 0.0
2014-Oct-25 13:33N 59°55' E 010°44'0 0.0
2014-Oct-25 12:33N 59°55' E 010°44'0 0.0
2014-Oct-25 11:33N 59°55' E 010°44'0 0.0
2014-Oct-25 10:33N 59°55' E 010°44'0 0.1
2014-Oct-25 09:33N 59°55' E 010°44'0 0.0
2014-Oct-25 08:33N 59°55' E 010°44'0 0.1
2014-Oct-25 07:33N 59°55' E 010°44'0 0.0
2014-Oct-25 06:33N 59°55' E 010°44'0 0.1
2014-Oct-25 05:33N 59°54' E 010°44'0 0.0
2014-Oct-25 04:33N 59°55' E 010°44'0 0.1
2014-Oct-25 03:29N 59°55' E 010°44'0 0.0
2014-Oct-25 02:29N 59°55' E 010°44'0 0.0
2014-Oct-25 01:29N 59°55' E 010°44'0 0.0
2014-Oct-25 00:32N 59°55' E 010°44'0 0.0
2014-Oct-24 23:32N 59°55' E 010°44'0 0.0
2014-Oct-24 22:32N 59°55' E 010°44'0 0.0
2014-Oct-24 21:32N 59°55' E 010°44'0 0.0
2014-Oct-24 20:32N 59°55' E 010°44'0 0.0
2014-Oct-24 19:32N 59°55' E 010°44'0 0.0
2014-Oct-24 18:32N 59°55' E 010°44'0 0.0
2014-Oct-24 17:23N 59°55' E 010°44'0 0.0
2014-Oct-24 16:33N 59°55' E 010°44'0 0.1
2014-Oct-24 15:33N 59°55' E 010°44'0 0.0
2014-Oct-24 14:33N 59°55' E 010°44'0 0.1
2014-Oct-24 13:33N 59°54' E 010°44'0 0.1
2014-Oct-24 12:33N 59°55' E 010°44'0 0.0
2014-Oct-24 11:33N 59°55' E 010°44'0 0.0
2014-Oct-24 10:33N 59°54' E 010°44'0 0.1
2014-Oct-24 08:17N 59°55' E 010°44'0 0.0
2014-Oct-24 07:33N 59°55' E 010°44'0 0.1
2014-Oct-24 06:33N 59°54' E 010°44'0 0.0
2014-Oct-24 05:33N 59°54' E 010°44'0 0.0
2014-Oct-24 04:33N 59°55' E 010°44'3 0.2
2014-Oct-23 15:29N 59°53' E 010°40'0 0.4
2014-Oct-23 14:28N 59°53' E 010°40'1 0.6
2014-Oct-23 13:31N 59°53' E 010°40'3 3.0
2014-Oct-23 12:33N 59°55' E 010°44'1 0.6
2014-Oct-23 11:32N 59°54' E 010°43'0 0.0
2014-Oct-23 10:33N 59°54' E 010°42'1 0.7
2014-Oct-23 09:33N 59°55' E 010°44'0 0.0
2014-Oct-23 08:33N 59°55' E 010°44'0 0.0
2014-Oct-23 07:33N 59°55' E 010°44'1 1.2
2014-Oct-23 06:33N 59°54' E 010°42'0 0.1
2014-Oct-23 05:33N 59°54' E 010°42'1 1.0
2014-Oct-23 04:22N 59°55' E 010°44'0 0.0
2014-Oct-23 03:25N 59°55' E 010°44'0 0.0
2014-Oct-23 02:22N 59°55' E 010°44'0 0.0
2014-Oct-23 01:28N 59°55' E 010°44'0 0.0
2014-Oct-23 00:16N 59°55' E 010°44'0 0.0
2014-Oct-22 23:31N 59°55' E 010°44'0 0.0
2014-Oct-22 22:31N 59°55' E 010°44'0 0.0
2014-Oct-22 21:28N 59°55' E 010°44'0 0.0
2014-Oct-22 20:28N 59°55' E 010°44'0 0.0
2014-Oct-22 19:31N 59°55' E 010°44'0 0.0
2014-Oct-22 18:31N 59°55' E 010°44'0 0.0
2014-Oct-22 17:31N 59°55' E 010°44'0 0.0
2014-Oct-22 16:33N 59°55' E 010°44'0 0.0
2014-Oct-22 15:34N 59°55' E 010°44'0 0.0
2014-Oct-22 14:33N 59°55' E 010°44'0 0.0
2014-Oct-22 13:34N 59°55' E 010°44'0 0.0
2014-Oct-22 12:33N 59°55' E 010°44'0 0.0
2014-Oct-22 11:33N 59°55' E 010°44'0 0.0
2014-Oct-22 10:33N 59°55' E 010°44'0 0.0
2014-Oct-22 09:32N 59°55' E 010°44'0 0.0
2014-Oct-22 08:32N 59°55' E 010°44'0 0.0
2014-Oct-22 07:25N 59°55' E 010°44'0 0.1
2014-Oct-22 06:33N 59°55' E 010°44'0 0.0
2014-Oct-22 05:33N 59°54' E 010°44'  

Dump ship's entire track history